Latest Weather Observations for Oakey

IDQ60901

Issued at 4:21 pm EST Wednesday 2 September 2015 (issued every 10 minutes, with the page automatically refreshed every 10 minutes)

About weather observations | Map of Brisbane area stations | Latest observations for Brisbane area | Other Formats
Station Details ID: 041359 Name: OAKEY AERO Lat: -27.40 Lon: 151.74 Height: 405.69 m
Data from the previous 72 hours. | See also: Recent months at Oakey
Date/Time
EST
Tmp

°C
App
Tmp
°C
Dew
Point
°C
Rel
Hum
%
Delta-T

°C
Wind Press
QNH
hPa
Press
MSL
hPa
Rain
since
9 am
mm
Dir
 
Spd
km/h
Gust
km/h
Spd
kts
Gust
kts
02/04:00pm 24.8 19.4 1.0 21 11.4 N 19 22 10 12 1014.3 1013.5 0.0
02/03:30pm 25.1 20.0 0.6 20 11.6 N 17 22 9 12 1013.9 1013.1 0.0
02/03:00pm 25.5 20.9 1.6 21 11.6 NNW 15 22 8 12 1014.2 1013.4 0.0
02/02:30pm 24.5 18.8 0.8 21 11.3 N 20 28 11 15 1014.6 1013.8 0.0
02/02:00pm 25.0 18.6 1.2 21 11.4 NW 24 35 13 19 1015.0 1014.3 0.0
02/01:30pm 24.6 19.2 1.5 22 11.1 NNW 19 33 10 18 1015.7 1014.9 0.0
02/01:00pm 24.0 18.3 0.4 21 11.1 NW 20 33 11 18 1016.4 1015.6 0.0
02/12:30pm 23.7 18.0 0.7 22 10.8 NNW 20 32 11 17 1017.0 1016.3 0.0
02/12:00pm 23.2 17.7 0.9 23 10.5 NNW 19 28 10 15 1017.6 1016.9 0.0
02/11:30am 22.8 18.9 3.4 28 9.6 NNW 13 24 7 13 1018.3 1017.5 0.0
02/11:00am 22.3 17.4 1.9 26 9.7 NNW 17 28 9 15 1018.8 1018.0 0.0
02/10:30am 21.1 18.6 4.6 34 8.2 NW 7 11 4 6 1019.2 1018.5 0.0
02/10:00am 19.5 17.3 5.2 39 7.1 NE 6 9 3 5 1019.7 1019.0 0.0
02/09:30am 16.7 15.3 5.6 48 5.5 NNE 2 7 1 4 1020.1 1019.4 0.0
02/09:00am 14.7 11.5 5.2 53 4.6 ESE 11 13 6 7 1020.0 1019.3 0.0
02/08:30am 12.3 9.5 5.0 61 3.4 ESE 9 11 5 6 1020.0 1019.3 0.0
02/08:00am 11.2 8.4 5.3 67 2.8 ENE 9 11 5 6 1019.6 1018.9 0.0
02/07:30am 9.4 6.2 5.2 75 1.9 ENE 11 13 6 7 1019.4 1018.7 0.0
02/07:00am 6.8 3.8 4.1 83 1.2 E 9 13 5 7 1019.3 1018.6 0.0
02/06:30am 4.3 1.6 2.8 90 0.6 NE 6 7 3 4 1019.1 1018.4 0.0
02/06:00am 2.9 -0.2 1.1 88 0.7 ENE 7 9 4 5 1018.8 1018.0 0.0
02/05:30am 3.3 0.4 1.5 88 0.7 NE 6 7 3 4 1018.8 1018.0 0.0
02/05:00am 3.8 1.0 2.2 89 0.7 NE 6 7 3 4 1018.4 1017.6 0.0
02/04:30am 3.5 0.5 2.2 91 0.5 ESE 7 9 4 5 1017.9 1017.2 0.0
02/04:00am 2.3 0.1 0.8 90 0.6 NNE 2 7 1 4 1018.0 1017.3 0.0
02/03:30am 1.8 -1.5 0.2 89 0.6 ENE 7 11 4 6 1017.8 1017.1 0.0
02/03:00am 1.7 -1.6 -0.1 88 0.7 ESE 7 9 4 5 1017.9 1017.2 0.0
02/02:30am 1.8 -1.5 0.2 89 0.6 E 7 9 4 5 1018.0 1017.3 0.0
02/02:00am 2.4 -0.6 0.8 89 0.6 NE 6 7 3 4 1018.4 1017.6 0.0
02/01:30am 2.4 -0.7 1.1 91 0.5 NE 7 9 4 5 1018.4 1017.6 0.0
02/01:00am 2.2 -1.0 0.6 89 0.6 NNE 7 11 4 6 1018.4 1017.6 0.0
02/12:30am 3.0 -0.5 1.2 88 0.7 ESE 9 11 5 6 1018.4 1017.6 0.0
02/12:00am 3.1 0.0 1.2 87 0.7 NE 7 9 4 5 1018.6 1017.8 0.0
 
Date/Time
EST
Tmp

°C
App
Tmp
°C
Dew
Point
°C
Rel
Hum
%
Delta-T

°C
Wind Press
QNH
hPa
Press
MSL
hPa
Rain
since
9 am
mm
Dir
 
Spd
km/h
Gust
km/h
Spd
kts
Gust
kts
01/11:30pm 4.0 0.4 0.9 80 1.2 E 9 11 5 6 1018.6 1017.8 0.0
01/11:00pm 4.2 1.1 1.2 81 1.2 E 7 9 4 5 1018.6 1017.8 0.0
01/10:30pm 5.0 2.1 1.5 78 1.4 E 6 7 3 4 1018.5 1017.7 0.0
01/10:00pm 5.4 3.0 2.1 79 1.4 NE 4 7 2 4 1018.5 1017.7 0.0
01/09:30pm 5.6 1.5 2.3 79 1.4 NE 13 15 7 8 1018.2 1017.4 0.0
01/09:00pm 7.0 3.4 2.7 74 1.8 NE 11 13 6 7 1018.0 1017.3 0.0
01/08:30pm 6.7 3.7 2.0 72 2.0 NNE 7 9 4 5 1017.8 1017.1 0.0
01/08:00pm 8.5 5.7 2.3 65 2.7 NE 6 7 3 4 1017.4 1016.7 0.0
01/07:30pm 9.0 7.3 1.9 61 3.0 CALM 0 0 0 0 1017.1 1016.4 0.0
01/07:00pm 12.4 7.9 -0.1 42 5.3 SW 13 15 7 8 1016.7 1015.9 0.0
01/06:30pm 13.3 8.8 0.0 40 5.7 SW 13 15 7 8 1016.6 1015.8 0.0
01/06:00pm 14.2 9.8 0.1 38 6.1 SW 13 17 7 9 1016.3 1015.5 0.0
01/05:30pm 16.7 11.5 -0.1 32 7.4 SW 17 20 9 11 1016.0 1015.2 0.0
01/05:00pm 18.6 12.8 0.2 29 8.2 SW 20 24 11 13 1015.8 1015.0 0.0
01/04:30pm 19.7 13.9 -0.3 26 9.0 WSW 20 26 11 14 1015.6 1014.8 0.0
01/04:00pm 20.2 15.1 0.6 27 9.0 WSW 17 24 9 13 1015.6 1014.8 0.0
01/03:30pm 20.5 15.1 1.4 28 8.9 WSW 19 30 10 16 1015.4 1014.7 0.0
01/03:00pm 20.4 14.4 0.8 27 9.0 W 22 32 12 17 1015.7 1014.9 0.0
01/02:30pm 20.0 13.9 0.5 27 8.9 W 22 30 12 16 1016.0 1015.2 0.0
01/02:00pm 19.7 13.6 0.7 28 8.7 W 22 30 12 16 1016.3 1015.5 0.0
01/01:30pm 19.3 13.3 1.3 30 8.3 WSW 22 32 12 17 1016.5 1015.7 0.0
01/01:00pm 18.2 12.4 -0.1 29 8.1 W 20 32 11 17 1016.8 1016.0 0.0
01/12:30pm 18.0 11.5 0.2 30 7.9 WSW 24 37 13 20 1017.2 1016.5 0.0
01/12:00pm 17.2 11.3 1.6 35 7.1 W 22 30 12 16 1017.6 1016.9 0.0
01/11:30am 16.4 11.1 3.1 41 6.2 WSW 20 28 11 15 1018.2 1017.4 0.0
01/11:00am 15.4 10.1 2.9 43 5.8 W 20 30 11 16 1018.8 1018.0 0.0
01/10:30am 15.1 10.7 4.5 49 5.0 WNW 17 24 9 13 1019.2 1018.5 0.0
01/10:00am 14.0 8.6 2.6 46 5.2 W 20 28 11 15 1019.5 1018.8 0.0
01/09:30am 12.8 8.6 4.0 55 4.1 W 15 24 8 13 1019.4 1019.3 0.0
01/09:00am 11.7 8.5 5.3 65 3.0 W 11 17 6 9 1019.5 1019.4 0.0
01/08:30am 10.4 7.7 5.8 73 2.2 WNW 9 13 5 7 1019.4 1019.3 0.0
01/08:00am 8.2 5.4 5.3 82 1.3 NW 9 11 5 6 1019.2 1019.1 0.0
01/07:30am 5.7 3.3 4.5 92 0.5 NW 6 7 3 4 1018.9 1018.8 0.0
01/07:00am 3.7 2.2 3.1 96 0.2 CALM 0 0 0 0 1018.5 1018.4 0.0
01/06:30am 1.4 -0.4 1.0 97 0.2 CALM 0 0 0 0 1018.2 1018.0 0.0
01/06:00am 1.0 -1.7 0.3 95 0.3 NE 4 6 2 3 1017.8 1017.7 0.0
01/05:30am 1.1 -2.0 0.4 95 0.3 ENE 6 7 3 4 1017.5 1017.4 0.0
01/05:00am 1.1 -0.8 0.4 95 0.3 CALM 0 0 0 0 1017.2 1017.1 0.0
01/04:30am 1.7 -0.1 1.0 95 0.3 CALM 0 0 0 0 1017.0 1016.9 0.0
01/04:00am 1.6 -0.3 0.4 92 0.5 CALM 0 0 0 0 1016.9 1016.8 0.0
01/03:30am 2.5 0.8 1.6 94 0.4 CALM 0 0 0 0 1016.9 1016.8 0.0
01/03:00am 2.8 1.1 1.8 93 0.4 CALM 0 0 0 0 1017.1 1017.0 0.0
01/02:30am 2.7 0.2 1.5 92 0.5 NE 4 6 2 3 1017.2 1017.1 0.0
01/02:00am 3.1 0.3 1.8 91 0.5 NE 6 7 3 4 1017.4 1017.3 0.0
01/01:30am 3.5 0.2 2.2 91 0.5 NNE 9 11 5 6 1017.6 1017.5 0.0
01/01:00am 3.5 0.1 2.0 90 0.6 N 9 11 5 6 1017.7 1017.6 0.0
01/12:30am 4.3 2.3 2.3 87 0.8 N 2 7 1 4 1017.8 1017.7 0.0
01/12:00am 4.5 2.8 1.9 83 1.1 CALM 0 0 0 0 1017.9 1017.8 0.0
 
Date/Time
EST
Tmp

°C
App
Tmp
°C
Dew
Point
°C
Rel
Hum
%
Delta-T

°C
Wind Press
QNH
hPa
Press
MSL
hPa
Rain
since
9 am
mm
Dir
 
Spd
km/h
Gust
km/h
Spd
kts
Gust
kts
31/11:30pm 4.8 3.2 2.2 83 1.1 CALM 0 0 0 0 1017.9 1017.8 0.0
31/11:00pm 5.7 4.0 2.0 77 1.5 CALM 0 0 0 0 1018.0 1017.9 0.0
31/10:30pm 7.6 6.1 3.1 73 1.9 CALM 0 0 0 0 1018.3 1018.1 0.0
31/10:00pm 8.4 5.2 2.8 68 2.4 W 9 9 5 5 1018.3 1018.1 0.0
31/09:30pm 8.5 6.5 2.5 66 2.6 WSW 2 6 1 3 1018.0 1017.9 0.0
31/09:00pm 9.9 5.8 2.3 59 3.3 SW 13 17 7 9 1017.8 1017.7 0.0
31/08:30pm 11.4 6.2 2.4 54 4.0 SW 19 24 10 13 1017.6 1017.5 0.0
31/08:00pm 11.7 6.8 1.9 51 4.3 SW 17 22 9 12 1017.4 1017.3 0.0
31/07:30pm 12.1 6.7 1.4 48 4.6 SW 19 24 10 13 1017.2 1017.1 0.0
31/07:00pm 12.8 7.3 0.5 43 5.3 SW 19 22 10 12 1016.7 1016.6 0.0
31/06:30pm 12.9 7.4 0.6 43 5.3 WSW 19 22 10 12 1016.2 1016.0 0.0
31/06:00pm 13.4 8.2 0.4 41 5.6 WSW 17 20 9 11 1016.0 1015.8 0.0
31/05:30pm 15.0 9.5 0.4 37 6.4 WSW 19 22 10 12 1015.8 1015.6 0.0
31/05:00pm 16.8 10.6 -0.4 31 7.5 WSW 22 32 12 17 1015.6 1015.4 0.0
31/04:30pm 17.6 11.0 -0.2 30 7.8 WSW 24 35 13 19 1015.2 1015.1 0.0
31/04:00pm 18.1 11.1 -0.7 28 8.2 WSW 26 33 14 18 1015.0 1014.9 0.0
31/03:30pm 18.6 12.0 -0.2 28 8.4 WSW 24 37 13 20 1014.9 1014.8 0.0
31/03:00pm 18.2 11.5 -1.1 27 8.4 SW 24 35 13 19 1015.0 1014.9 0.0
31/02:30pm 18.6 12.3 -0.7 27 8.5 WSW 22 39 12 21 1015.3 1015.2 0.0
31/02:00pm 18.5 11.8 -0.8 27 8.5 WSW 24 32 13 17 1015.6 1015.4 0.0
31/01:30pm 17.9 12.2 0.6 31 7.8 WSW 20 33 11 18 1015.8 1015.6 0.0
31/01:00pm 17.6 11.2 0.7 32 7.6 WSW 24 33 13 18 1016.1 1015.9 0.0
31/12:30pm 17.1 11.7 1.5 35 7.1 WSW 19 30 10 16 1016.5 1016.4 0.0
31/12:00pm 16.3 11.6 3.0 41 6.2 W 17 32 9 17 1016.6 1016.5 0.0
31/11:30am 15.3 11.2 4.1 47 5.3 WSW 15 20 8 11 1016.9 1016.8 0.0
31/11:00am 14.6 11.3 4.3 50 4.9 W 11 17 6 9 1017.4 1017.3 0.0
31/10:30am 13.6 10.3 4.5 54 4.3 W 11 20 6 11 1017.9 1017.8 0.0
31/10:00am 12.4 9.2 5.1 61 3.4 WNW 11 17 6 9 1018.4 1018.3 0.0
31/09:30am 10.8 7.8 4.3 64 3.0 WSW 9 13 5 7 1018.6 1018.5 0.0
31/09:00am 9.3 6.6 3.9 69 2.4 W 7 11 4 6 1018.7 1018.6 0.0
31/08:30am 7.7 4.9 3.2 73 2.0 W 7 9 4 5 1018.7 1018.6 0.0
31/08:00am 6.3 4.8 3.1 80 1.4 CALM 0 7 0 4 1018.6 1018.5 0.0
31/07:30am 5.3 3.9 3.8 90 0.6 CALM 0 0 0 0 1018.5 1018.4 0.0
31/07:00am 3.2 0.5 2.9 98 0.1 E 6 6 3 3 1018.3 1018.1 0.0
31/06:30am 0.7 -2.6 0.4 98 0.1 SE 7 9 4 5 1018.0 1017.9 0.0
31/06:00am 1.0 -2.0 0.6 97 0.2 NE 6 7 3 4 1017.7 1017.6 0.0
31/05:30am 1.1 -1.9 0.7 97 0.2 NE 6 7 3 4 1017.6 1017.5 0.0
31/05:00am 1.1 -1.2 0.5 96 0.2 NNE 2 6 1 3 1017.5 1017.4 0.0
31/04:30am 1.7 -1.4 1.3 97 0.2 NE 7 7 4 4 1017.3 1017.2 0.0
31/04:00am 1.9 -1.0 1.3 96 0.2 NE 6 9 3 5 1017.3 1017.2 0.0
31/03:30am 2.2 -0.3 1.6 96 0.2 NNE 4 7 2 4 1017.4 1017.3 0.0
31/03:00am 2.1 -0.8 1.4 95 0.3 NNE 6 7 3 4 1017.8 1017.7 0.0
31/02:30am 2.4 -1.1 1.5 94 0.4 NNW 9 9 5 5 1018.0 1017.9 0.0
31/02:00am 3.2 0.2 2.3 94 0.4 NNE 7 9 4 5 1018.4 1018.3 0.0
31/01:30am 3.1 0.1 2.1 93 0.4 NNE 7 9 4 5 1018.6 1018.5 0.0
31/01:00am 3.2 -0.2 1.9 91 0.5 NNW 9 11 5 6 1018.7 1018.6 0.0
31/12:30am 4.2 1.3 2.7 90 0.6 NE 7 11 4 6 1018.8 1018.7 0.0
31/12:00am 4.3 1.1 2.8 90 0.6 NNE 9 9 5 5 1018.9 1018.8 0.0
 
Date/Time
EST
Tmp

°C
App
Tmp
°C
Dew
Point
°C
Rel
Hum
%
Delta-T

°C
Wind Press
QNH
hPa
Press
MSL
hPa
Rain
since
9 am
mm
Dir
 
Spd
km/h
Gust
km/h
Spd
kts
Gust
kts
30/11:30pm 4.6 1.4 2.8 88 0.8 NE 9 11 5 6 1019.1 1019.0 0.0
30/11:00pm 6.1 3.6 3.9 86 1.0 NNW 6 6 3 3 1019.2 1019.1 0.0
30/10:30pm 5.9 3.3 3.4 84 1.1 N 6 6 3 3 1019.4 1019.3 0.0
30/10:00pm 6.9 5.1 3.7 80 1.4 NNE 2 6 1 3 1019.4 1019.3 0.0
30/09:30pm 7.1 4.0 3.5 78 1.6 W 9 11 5 6 1019.3 1019.2 0.0
30/09:00pm 7.1 4.1 4.1 81 1.3 WSW 9 11 5 6 1019.1 1019.0 0.0
30/08:30pm 7.3 3.2 4.3 81 1.3 W 15 15 8 8 1018.8 1018.7 0.0
30/08:00pm 7.7 4.0 4.5 80 1.4 WSW 13 17 7 9 1018.7 1018.6 0.0
30/07:30pm 8.4 4.3 4.4 76 1.8 WSW 15 17 8 9 1018.3 1018.1 0.0
30/07:00pm 10.0 5.5 4.4 68 2.5 WSW 17 19 9 10 1017.8 1017.7 0.0
30/06:30pm 10.6 6.5 4.3 65 2.9 WSW 15 19 8 10 1017.5 1017.4 0.0
30/06:00pm 12.7 7.8 3.9 55 4.1 WSW 19 24 10 13 1017.2 1017.1 0.0
30/05:30pm 14.1 8.1 3.6 49 4.9 WSW 24 30 13 16 1016.9 1016.8 0.0
30/05:00pm 15.5 8.7 3.3 44 5.7 WSW 28 37 15 20 1016.5 1016.4 0.0
30/04:30pm 16.2 8.5 2.2 39 6.4 WSW 32 41 17 22 1016.2 1016.0 0.0

Latest Capital City Observations: Canberra | Sydney | Melbourne | Brisbane | Adelaide | Perth | Hobart | Darwin

Other Formats:

Comma delimited format used in spreadsheet applications
http://www.bom.gov.au/fwo/IDQ60901/IDQ60901.94552.axf

JavaScript Object Notation format (JSON) in row-major order
http://www.bom.gov.au/fwo/IDQ60901/IDQ60901.94552.json